Главная страница
METAR-TAF:

METAR-TAF

Аэропорты :

Sussex Airport

Sussex, Нью-Джерси, США

широта: 41-12-01N, долгота: 074-37-23W, высота над уровнем моря: 128 м

Текущие метеонаблюдения

Эта сводка был подготовлена 40 минут назад, в 08:53 UTC
Ветер 3 Узел переменных направлений
Температура 4°C
Влажность 65%
Давление 1023 hPa
Видимость: 16.1 км
небольшая облачность на высоте 4800 фута

METAR: KFWN 180853Z AUTO VRB03KT 10SM FEW048 04/M02 A3021 RMK AO2 SLP232 T00391022 53016

Время: 05:33 (09:33 UTC)


TAF: отсутствует

Метеонаблюдения и прогнозы для более 4000 аэропортов (сводки METAR и TAF).

Имеющиеся станции представлены на карте желтыми и красными точками.

Чтобы увидеть название станции, наведите на нее мышь.

Затем щелкните, чтобы увидеть метеонаблюдения и метеопрогнозы.

Управление картой: чтобы увеличить масштаб, щелкните зеленые кнопки с черным крестиком; чтобы уменьшить масштаб, щелкните зеленую кнопку с тире; для просмотра соседних карт щелкайте зеленые стрелки.


METAR-TAF: